createdAt,value
2023-03-08T00:00:36.470Z,50.979324
2023-03-08T00:01:36.420Z,50.979324
2023-03-08T03:23:52.034Z,50.875473
2023-03-08T03:24:52.044Z,50.875328
2023-03-08T03:25:52.034Z,50.875332
2023-03-08T03:26:51.993Z,50.875359
2023-03-08T03:27:52.000Z,50.875542
2023-03-08T03:28:51.983Z,50.875637
2023-03-08T03:29:51.966Z,50.875366
2023-03-08T03:30:52.040Z,50.875301
2023-03-08T03:31:51.938Z,50.875271
2023-03-08T03:32:51.928Z,50.875370
2023-03-08T03:33:52.974Z,50.875275
2023-03-08T03:34:51.908Z,50.875393
2023-03-08T03:35:51.942Z,50.875401
2023-03-08T03:36:51.882Z,50.875347
2023-03-08T03:37:51.883Z,50.875389
2023-03-08T03:38:51.881Z,50.875343
2023-03-08T03:39:51.889Z,50.875286
2023-03-08T03:40:51.856Z,50.875301
2023-03-08T03:41:51.844Z,50.875450
2023-03-08T03:42:51.858Z,50.875458
2023-03-08T03:43:51.855Z,50.875305
2023-03-08T03:44:51.815Z,50.875351
2023-03-08T03:45:51.803Z,50.875305
2023-03-08T03:46:51.831Z,50.875332
2023-03-08T03:47:51.807Z,50.875271
2023-03-08T03:48:51.791Z,50.875195
2023-03-08T03:49:51.802Z,50.875202
2023-03-08T03:50:51.765Z,50.875275
2023-03-08T03:51:51.749Z,50.875309
2023-03-08T03:52:51.744Z,50.875305
2023-03-08T03:53:51.735Z,50.875351
2023-03-08T03:54:52.728Z,50.875397
2023-03-08T03:55:51.715Z,50.875576
2023-03-08T03:56:51.712Z,50.875660
2023-03-08T03:57:51.763Z,50.875381
2023-03-08T03:58:51.689Z,50.875519
2023-03-08T03:59:51.688Z,50.875702
2023-03-08T04:00:51.663Z,50.875519
2023-03-08T04:01:51.656Z,50.875519
2023-03-08T04:02:51.684Z,50.875519
2023-03-08T04:03:51.762Z,50.878311
2023-03-08T04:04:51.666Z,50.879818
2023-03-08T04:05:51.628Z,50.879818
2023-03-08T04:06:51.612Z,50.879818
2023-03-08T04:07:51.597Z,50.879818
2023-03-08T04:08:51.597Z,50.879818
2023-03-08T04:09:51.594Z,50.879818
2023-03-08T04:10:51.561Z,50.879818
2023-03-08T04:11:52.554Z,50.879818
2023-03-08T04:12:51.568Z,50.879818
2023-03-08T04:13:51.544Z,50.879818
2023-03-08T04:14:51.542Z,50.879818
2023-03-08T04:15:51.522Z,50.879818
2023-03-08T04:16:51.526Z,50.879818
2023-03-08T04:17:51.496Z,50.879818
2023-03-08T04:18:51.496Z,50.879818
2023-03-08T04:19:51.501Z,50.879818
2023-03-08T04:20:51.474Z,50.879818
2023-03-08T04:21:51.467Z,50.879818
2023-03-08T04:22:51.451Z,50.879818
2023-03-08T04:23:51.448Z,50.879818
2023-03-08T04:24:51.457Z,50.879818
2023-03-08T04:25:51.420Z,50.879818
2023-03-08T04:26:51.404Z,50.879818
2023-03-08T04:27:51.412Z,50.879818
2023-03-08T04:28:51.399Z,50.879818
2023-03-08T04:29:51.400Z,50.879818
2023-03-08T04:30:51.382Z,50.879818
2023-03-08T04:31:51.375Z,50.879818
2023-03-08T04:32:51.375Z,50.879818
2023-03-08T04:33:51.341Z,50.879818
2023-03-08T04:34:51.336Z,50.879818
2023-03-08T04:35:51.425Z,50.879818
2023-03-08T04:36:51.310Z,50.879818
2023-03-08T04:37:51.325Z,50.879818
2023-03-08T04:38:51.302Z,50.879818
2023-03-08T04:39:51.302Z,50.879818
2023-03-08T04:40:51.289Z,50.879818
2023-03-08T04:41:51.274Z,50.879818
2023-03-08T04:42:51.253Z,50.879818
2023-03-08T04:43:51.243Z,50.879818
2023-03-08T04:44:51.244Z,50.879818
2023-03-08T04:45:51.242Z,50.879818
2023-03-08T04:46:51.241Z,50.879818
2023-03-08T04:47:51.207Z,50.879818
2023-03-08T04:48:51.205Z,50.879818
2023-03-08T04:49:51.203Z,50.879818
2023-03-08T04:50:51.188Z,50.879818
2023-03-08T04:51:51.179Z,50.879818
2023-03-08T04:52:51.503Z,50.879818
2023-03-08T04:53:51.148Z,50.875145
2023-03-08T04:54:51.147Z,50.875481
2023-03-08T04:55:51.154Z,50.875393
2023-03-08T04:56:51.114Z,50.875305
2023-03-08T04:57:51.097Z,50.875546
2023-03-08T04:58:51.093Z,50.876060
2023-03-08T04:59:51.093Z,50.875660
2023-03-08T05:00:51.070Z,50.875427
2023-03-08T05:01:51.134Z,50.874969
2023-03-08T05:02:51.056Z,50.875156
2023-03-08T05:03:51.040Z,50.875179
2023-03-08T05:04:51.114Z,50.875240
2023-03-08T05:05:51.021Z,50.875397
2023-03-08T05:06:51.005Z,50.875412
2023-03-08T05:07:52.026Z,50.875546
2023-03-08T05:08:51.005Z,50.875443
2023-03-08T05:09:51.018Z,50.875565
2023-03-08T05:10:50.971Z,50.875492
2023-03-08T05:11:50.998Z,50.875473
2023-03-08T05:12:50.960Z,50.875359
2023-03-08T05:13:50.935Z,50.875511
2023-03-08T05:14:50.995Z,50.875519
2023-03-08T05:15:50.946Z,50.875423
2023-03-08T05:16:50.924Z,50.875381
2023-03-08T05:17:50.900Z,50.876049
2023-03-08T05:18:50.898Z,50.881393
2023-03-08T05:19:50.898Z,50.888252
2023-03-08T05:20:50.885Z,50.897545
2023-03-08T05:21:50.870Z,50.897545
2023-03-08T05:22:58.547Z,50.897545
2023-03-08T05:23:52.854Z,50.897545
2023-03-08T05:24:50.864Z,50.897545
2023-03-08T05:25:50.829Z,50.874355
2023-03-08T05:26:50.826Z,50.874790
2023-03-08T05:27:50.826Z,50.875210
2023-03-08T05:28:50.806Z,50.875347
2023-03-08T05:29:50.796Z,50.875473
2023-03-08T05:30:50.799Z,50.875553
2023-03-08T05:31:50.800Z,50.875469
2023-03-08T05:32:50.755Z,50.875446
2023-03-08T05:33:50.758Z,50.875420
2023-03-08T05:34:50.759Z,50.875462
2023-03-08T05:35:50.841Z,50.875431
2023-03-08T05:36:50.730Z,50.875698
2023-03-08T05:37:50.727Z,50.875263
2023-03-08T05:38:50.714Z,50.875313
2023-03-08T05:39:50.728Z,50.875233
2023-03-08T05:40:50.682Z,50.875233
2023-03-08T05:41:50.679Z,50.875324
2023-03-08T05:42:50.667Z,50.875336
2023-03-08T05:43:50.657Z,50.875259
2023-03-08T05:44:50.711Z,50.875271
2023-03-08T05:45:50.681Z,50.874935
2023-03-08T05:46:50.634Z,50.874943
2023-03-08T05:47:50.622Z,50.875111
2023-03-08T05:48:50.600Z,50.875126
2023-03-08T05:49:50.609Z,50.875046
2023-03-08T05:50:50.581Z,50.875366
2023-03-08T05:51:50.567Z,50.875843
2023-03-08T05:52:50.571Z,50.875145
2023-03-08T05:53:50.549Z,50.875137
2023-03-08T05:54:50.573Z,50.875233
2023-03-08T05:55:50.523Z,50.875126
2023-03-08T05:56:50.557Z,50.875156
2023-03-08T05:57:50.531Z,50.875168
2023-03-08T05:58:50.518Z,50.875050
2023-03-08T05:59:50.525Z,50.875515
2023-03-08T06:00:50.489Z,50.875397
2023-03-08T06:01:50.521Z,50.875374
2023-03-08T06:02:50.522Z,50.875504
2023-03-08T06:03:50.475Z,50.875492
2023-03-08T06:04:50.488Z,50.875366
2023-03-08T06:05:51.441Z,50.875668
2023-03-08T06:06:50.443Z,50.875233
2023-03-08T06:07:50.431Z,50.875332
2023-03-08T06:08:50.422Z,50.875221
2023-03-08T06:09:50.417Z,50.875401
2023-03-08T06:10:50.398Z,50.879631
2023-03-08T06:11:50.399Z,50.889446
2023-03-08T06:12:50.357Z,50.889446
2023-03-08T06:13:50.387Z,50.889446
2023-03-08T06:14:50.366Z,50.889446
2023-03-08T06:15:50.344Z,50.875328
2023-03-08T06:16:50.370Z,50.875263
2023-03-08T06:17:50.323Z,50.875488
2023-03-08T06:18:50.318Z,50.875488
2023-03-08T06:19:50.353Z,50.875305
2023-03-08T06:20:50.319Z,50.874992
2023-03-08T06:21:58.172Z,50.875156
2023-03-08T06:22:51.262Z,50.875156
2023-03-08T06:23:51.251Z,50.875156
2023-03-08T06:24:50.270Z,50.875156
2023-03-08T06:25:50.236Z,50.875156
2023-03-08T06:26:50.244Z,50.875156
2023-03-08T06:27:50.216Z,50.875217
2023-03-08T06:28:50.194Z,50.875145
2023-03-08T06:29:50.223Z,50.875305
2023-03-08T06:30:51.253Z,50.875244
2023-03-08T06:31:50.189Z,50.875244
2023-03-08T06:32:50.180Z,50.875244
2023-03-08T06:33:50.170Z,50.875244
2023-03-08T06:34:50.200Z,50.875244
2023-03-08T06:35:51.201Z,50.875244
2023-03-08T06:36:50.160Z,50.875244
2023-03-08T06:37:50.128Z,50.875244
2023-03-08T06:38:50.163Z,50.875244
2023-03-08T06:39:50.147Z,50.875244
2023-03-08T06:40:50.086Z,50.875244
2023-03-08T06:41:50.084Z,50.875244
2023-03-08T06:42:50.140Z,50.875244
2023-03-08T06:43:50.062Z,50.875244
2023-03-08T06:44:50.071Z,50.875244
2023-03-08T06:45:50.107Z,50.875244
2023-03-08T06:46:50.043Z,50.875244
2023-03-08T06:47:50.016Z,50.875244
2023-03-08T06:48:50.006Z,50.875244
2023-03-08T06:49:50.008Z,50.875244
2023-03-08T06:50:49.989Z,50.875244
2023-03-08T06:51:49.984Z,50.875244
2023-03-08T06:52:49.975Z,50.875244
2023-03-08T06:53:49.961Z,50.875244
2023-03-08T06:54:49.964Z,50.875244
2023-03-08T06:55:49.948Z,50.875244
2023-03-08T06:56:49.936Z,50.875244
2023-03-08T06:57:49.928Z,50.875244
2023-03-08T06:58:49.915Z,50.875244
2023-03-08T06:59:49.921Z,50.875244
2023-03-08T07:00:49.921Z,50.875244
2023-03-08T07:01:49.892Z,50.875244
2023-03-08T07:02:49.874Z,50.875244
2023-03-08T07:03:49.864Z,50.875244
2023-03-08T07:04:50.003Z,50.875244
2023-03-08T07:05:49.850Z,50.875244
2023-03-08T07:06:49.864Z,50.875244
2023-03-08T07:07:49.828Z,50.875244
2023-03-08T07:08:49.802Z,50.875244
2023-03-08T07:09:49.824Z,50.875244
2023-03-08T07:10:49.808Z,50.875244
2023-03-08T07:11:49.784Z,50.875244
2023-03-08T07:12:49.774Z,50.875244
2023-03-08T07:13:49.753Z,50.875244
2023-03-08T07:14:49.744Z,50.875244
2023-03-08T07:15:49.801Z,50.875244
2023-03-08T07:16:49.730Z,50.875244
2023-03-08T07:17:49.719Z,50.875244
2023-03-08T07:18:49.720Z,50.875244
2023-03-08T07:19:49.698Z,50.875244
2023-03-08T07:20:49.692Z,50.875244
2023-03-08T07:21:49.678Z,50.875244
2023-03-08T07:22:49.673Z,50.875244
2023-03-08T07:23:49.646Z,50.875244
2023-03-08T07:24:50.644Z,50.875244
2023-03-08T07:25:49.652Z,50.875244
2023-03-08T07:26:49.628Z,50.875244
2023-03-08T07:27:49.620Z,50.875244
2023-03-08T07:28:49.609Z,50.875244
2023-03-08T07:29:49.611Z,50.875244
2023-03-08T07:30:49.608Z,50.875244
2023-03-08T07:31:49.706Z,50.875244
2023-03-08T07:32:49.776Z,50.875244
2023-03-08T07:33:49.553Z,50.875244
2023-03-08T07:34:49.544Z,50.875244
2023-03-08T07:35:49.592Z,50.875244
2023-03-08T07:36:49.533Z,50.875244
2023-03-08T07:37:49.546Z,50.875244
2023-03-08T07:38:49.555Z,50.875244
2023-03-08T07:39:49.501Z,50.875244
2023-03-08T07:40:49.507Z,50.875244
2023-03-08T07:41:49.485Z,50.875244
2023-03-08T07:42:49.483Z,50.875244
2023-03-08T07:43:49.496Z,50.875244
2023-03-08T07:44:49.467Z,50.875244
2023-03-08T07:45:49.471Z,50.875244
2023-03-08T07:46:49.450Z,50.875244
2023-03-08T07:47:49.437Z,50.875244
2023-03-08T07:48:49.414Z,50.875244
2023-03-08T07:49:49.415Z,50.875244
2023-03-08T07:50:49.777Z,50.875244
2023-03-08T07:51:49.430Z,50.875244
2023-03-08T07:52:50.144Z,50.875244
2023-03-08T07:53:49.381Z,50.875244
2023-03-08T07:54:49.356Z,50.875244
2023-03-08T07:55:49.384Z,50.875244
2023-03-08T07:56:49.342Z,50.875244
2023-03-08T07:57:49.330Z,50.875244
2023-03-08T07:58:49.320Z,50.875244
2023-03-08T07:59:49.315Z,50.875244
2023-03-08T08:00:49.321Z,50.875244
2023-03-08T08:01:49.279Z,50.875244
2023-03-08T08:02:55.464Z,50.875244
2023-03-08T08:03:49.326Z,50.875244
2023-03-08T08:04:49.419Z,50.875244
2023-03-08T08:05:49.284Z,50.875244
2023-03-08T08:06:49.247Z,50.875244
2023-03-08T08:07:49.241Z,50.875244
2023-03-08T08:08:49.232Z,50.875244
2023-03-08T08:09:49.227Z,50.875244
2023-03-08T08:10:49.232Z,50.875244
2023-03-08T08:11:49.247Z,50.875244
2023-03-08T08:12:49.254Z,50.875244
2023-03-08T08:13:49.239Z,50.875244
2023-03-08T08:14:49.170Z,50.875244
2023-03-08T08:15:49.225Z,50.875244
2023-03-08T08:16:49.164Z,50.875244
2023-03-08T08:17:49.134Z,50.875244
2023-03-08T08:18:49.115Z,50.875244
2023-03-08T08:19:49.114Z,50.875244
2023-03-08T08:20:49.115Z,50.875244
2023-03-08T08:21:49.091Z,50.875244
2023-03-08T08:22:49.079Z,50.875244
2023-03-08T08:23:49.081Z,50.875244
2023-03-08T08:24:49.061Z,50.875244
2023-03-08T08:25:49.143Z,50.875244
2023-03-08T08:26:49.059Z,50.875244
2023-03-08T08:27:49.054Z,50.875244
2023-03-08T08:28:49.056Z,50.875244
2023-03-08T08:29:49.053Z,50.875244
2023-03-08T08:30:49.033Z,50.875244
2023-03-08T08:31:49.092Z,50.875244
2023-03-08T08:32:49.058Z,50.875244
2023-03-08T08:33:48.992Z,50.875244
2023-03-08T08:34:48.987Z,50.875244
2023-03-08T08:35:49.011Z,50.875244
2023-03-08T08:36:48.951Z,50.875244
2023-03-08T08:37:48.930Z,50.875244
2023-03-08T08:38:48.917Z,50.875244
2023-03-08T08:39:48.912Z,50.875244
2023-03-08T08:40:48.917Z,50.875244
2023-03-08T08:41:48.898Z,50.875244
2023-03-08T08:42:48.885Z,50.875244
2023-03-08T08:43:48.877Z,50.875244
2023-03-08T08:44:48.866Z,50.875244
2023-03-08T08:45:48.956Z,50.875244
2023-03-08T08:46:48.865Z,50.875244
2023-03-08T08:47:48.850Z,50.875244
2023-03-08T08:48:48.837Z,50.875244
2023-03-08T08:49:48.815Z,50.875244
2023-03-08T08:50:48.824Z,50.875244
2023-03-08T08:51:48.798Z,50.875244
2023-03-08T08:52:48.808Z,50.875244
2023-03-08T08:53:48.771Z,50.875244
2023-03-08T08:54:48.771Z,50.875244
2023-03-08T08:55:48.771Z,50.875244
2023-03-08T08:56:48.749Z,50.875244
2023-03-08T08:57:48.732Z,50.875244
2023-03-08T08:58:48.726Z,50.875244
2023-03-08T08:59:48.714Z,50.875244
2023-03-08T09:00:48.716Z,50.875244
2023-03-08T09:01:48.696Z,50.875244
2023-03-08T09:02:48.730Z,50.875244
2023-03-08T09:03:48.686Z,50.875244
2023-03-08T09:04:48.760Z,50.875244
2023-03-08T09:05:49.689Z,50.875244
2023-03-08T09:06:48.639Z,50.875244
2023-03-08T09:07:48.626Z,50.875244
2023-03-08T09:08:48.712Z,50.875244
2023-03-08T09:09:48.609Z,50.875244
2023-03-08T09:10:48.604Z,50.875244
2023-03-08T09:11:54.739Z,50.875244
2023-03-08T09:12:50.600Z,50.875244
2023-03-08T09:13:48.578Z,50.875244
2023-03-08T09:14:48.569Z,50.875244
2023-03-08T09:15:50.251Z,50.875244
2023-03-08T09:16:48.675Z,50.875244
2023-03-08T09:17:48.589Z,50.875244
2023-03-08T09:18:48.565Z,50.875244
2023-03-08T09:19:48.540Z,50.875244
2023-03-08T09:20:48.520Z,50.875244
2023-03-08T09:21:48.525Z,50.875244
2023-03-08T09:22:48.497Z,50.875244
2023-03-08T09:23:49.481Z,50.875244
2023-03-08T09:24:48.475Z,50.875244
2023-03-08T09:25:48.466Z,50.875244
2023-03-08T09:26:48.462Z,50.875244
2023-03-08T09:30:36.590Z,50.875244
2023-03-08T09:31:36.687Z,50.875244
2023-03-08T09:32:36.619Z,50.875244
2023-03-08T09:33:36.566Z,50.875244
2023-03-08T09:34:36.558Z,50.875244
2023-03-08T09:35:36.580Z,50.875244
2023-03-08T13:10:12.536Z,50.875465
2023-03-08T13:11:12.527Z,50.875454
2023-03-08T13:12:12.487Z,50.875175
2023-03-08T13:13:26.746Z,50.875362
2023-03-08T13:14:14.483Z,50.875427
2023-03-08T13:15:12.449Z,50.875286
2023-03-08T13:16:12.513Z,50.875446
2023-03-08T13:17:13.448Z,50.875336
2023-03-08T13:18:12.437Z,50.875420
2023-03-08T13:19:12.500Z,50.875046
2023-03-08T13:20:12.574Z,50.875484
2023-03-08T13:21:12.395Z,50.875874
2023-03-08T13:22:12.524Z,50.875778
2023-03-08T13:23:12.468Z,50.875854
2023-03-08T13:24:12.390Z,50.875065
2023-03-08T13:25:12.431Z,50.875065
2023-03-08T13:26:12.382Z,50.875065
2023-03-08T13:27:12.384Z,50.875065
2023-03-08T13:28:12.343Z,50.875065
2023-03-08T13:29:12.409Z,50.875065
2023-03-08T13:30:12.400Z,50.875065
2023-03-08T13:31:12.401Z,50.875065
2023-03-08T13:32:12.320Z,50.875065
2023-03-08T13:33:12.290Z,50.875065
2023-03-08T13:34:12.283Z,50.875065
2023-03-08T13:35:12.301Z,50.875065
2023-03-08T13:37:45.938Z,50.875065
2023-03-08T13:38:12.302Z,50.875065
2023-03-08T13:39:12.266Z,50.875065
2023-03-08T13:40:12.293Z,50.875065
2023-03-08T13:41:12.257Z,50.875065
2023-03-08T13:42:12.247Z,50.875065
2023-03-08T13:43:12.257Z,50.875065
2023-03-08T13:44:12.228Z,50.875065
2023-03-08T13:45:12.251Z,50.875065
2023-03-08T13:46:12.233Z,50.875065
2023-03-08T13:47:12.197Z,50.875065
2023-03-08T13:48:12.208Z,50.875065
2023-03-08T13:49:12.174Z,50.875065
2023-03-08T13:50:12.155Z,50.875065
2023-03-08T13:51:12.127Z,50.875065
2023-03-08T13:52:12.205Z,50.875065
2023-03-08T13:53:12.131Z,50.875065
2023-03-08T13:54:12.129Z,50.875065
2023-03-08T13:55:12.102Z,50.875065
2023-03-08T13:56:12.110Z,50.875065
2023-03-08T13:57:12.069Z,50.875065
2023-03-08T13:58:12.104Z,50.875065
2023-03-08T13:59:12.057Z,50.875065
2023-03-08T14:00:12.055Z,50.875065
2023-03-08T14:01:12.092Z,50.875065
2023-03-08T14:02:12.048Z,50.875065
2023-03-08T14:03:12.046Z,50.875065
2023-03-08T14:04:12.114Z,50.875065
2023-03-08T14:05:12.010Z,50.875065
2023-03-08T14:06:12.063Z,50.875065
2023-03-08T14:07:11.988Z,50.875065
2023-03-08T14:08:11.994Z,50.875065
2023-03-08T14:09:11.995Z,50.875065
2023-03-08T14:10:12.020Z,50.875065
2023-03-08T14:11:11.971Z,50.875065
2023-03-08T14:12:12.074Z,50.875065
2023-03-08T14:13:11.913Z,50.875065
2023-03-08T14:14:11.932Z,50.875065
2023-03-08T14:15:11.961Z,50.875065
2023-03-08T14:16:11.897Z,50.875065
2023-03-08T14:17:11.884Z,50.875065
2023-03-08T14:18:11.938Z,50.875065
2023-03-08T14:19:11.911Z,50.875065
2023-03-08T14:20:11.999Z,50.875065
2023-03-08T14:21:12.048Z,50.875065
2023-03-08T14:22:11.924Z,50.875065
2023-03-08T14:23:11.895Z,50.875065
2023-03-08T14:24:11.864Z,50.875065
2023-03-08T14:25:28.614Z,50.875065
2023-03-08T14:26:11.817Z,50.875065
2023-03-08T14:27:11.778Z,50.875065
2023-03-08T14:28:11.862Z,50.875065
2023-03-08T14:29:11.815Z,50.875065
2023-03-08T14:30:11.805Z,50.875065
2023-03-08T14:31:11.930Z,50.875065
2023-03-08T14:32:12.592Z,50.875065
2023-03-08T19:39:28.531Z,50.875221
2023-03-08T19:40:28.531Z,50.875282
2023-03-08T19:41:28.521Z,50.875252
2023-03-08T19:42:28.513Z,50.875275
2023-03-08T19:43:29.349Z,50.875278
2023-03-08T19:44:28.495Z,50.875298
2023-03-08T19:45:28.537Z,50.875290
2023-03-08T19:46:28.480Z,50.875164
2023-03-08T19:47:28.479Z,50.875069
2023-03-08T19:48:28.494Z,50.875267
2023-03-08T19:49:28.463Z,50.875320
2023-03-08T19:50:28.420Z,50.875412
2023-03-08T19:51:28.429Z,50.875214
2023-03-08T19:52:28.415Z,50.875229
2023-03-08T19:53:28.419Z,50.875233
2023-03-08T19:54:28.396Z,50.875114
2023-03-08T19:55:28.373Z,50.875072
2023-03-08T19:56:28.368Z,50.875183
2023-03-08T19:57:28.354Z,50.875130
2023-03-08T19:58:28.359Z,50.875240
2023-03-08T19:59:28.344Z,50.875240
2023-03-08T20:00:28.333Z,50.875271
2023-03-08T20:01:28.496Z,50.875233
2023-03-08T20:02:28.322Z,50.875267
2023-03-08T20:03:28.322Z,50.875229
2023-03-08T20:04:28.297Z,50.875214
2023-03-08T20:05:28.306Z,50.875259
2023-03-08T20:06:28.300Z,50.875313
2023-03-08T20:07:28.248Z,50.875233
2023-03-08T20:08:28.252Z,50.875473
2023-03-08T20:09:28.249Z,50.875717
2023-03-08T20:10:29.234Z,50.875324
2023-03-08T20:11:28.213Z,50.875362
2023-03-08T20:12:28.201Z,50.875393
2023-03-08T20:13:28.241Z,50.875278
2023-03-08T20:14:28.194Z,50.875408
2023-03-08T20:15:28.194Z,50.875401
2023-03-08T20:16:28.234Z,50.875366
2023-03-08T20:17:28.144Z,50.875423
2023-03-08T20:18:28.198Z,50.875423
2023-03-08T20:19:28.142Z,50.875336
2023-03-08T20:20:28.128Z,50.875298
2023-03-08T20:21:28.116Z,50.875278
2023-03-08T20:22:28.122Z,50.875153
2023-03-08T20:23:28.103Z,50.875366
2023-03-08T20:24:28.118Z,50.875309
2023-03-08T20:25:28.085Z,50.875347
2023-03-08T20:26:28.062Z,50.875126
2023-03-08T20:27:28.056Z,50.875164
2023-03-08T20:28:28.063Z,50.875423
2023-03-08T20:29:28.882Z,50.875454
2023-03-08T20:30:28.046Z,50.875534
2023-03-08T20:31:28.014Z,50.875435
2023-03-08T20:32:28.026Z,50.875290
2023-03-08T20:33:28.038Z,50.875374
2023-03-08T20:34:27.999Z,50.875370
2023-03-08T20:35:27.995Z,50.875332
2023-03-08T20:36:27.968Z,50.875393
2023-03-08T20:37:27.967Z,50.875462
2023-03-08T20:38:27.954Z,50.875267
2023-03-08T20:39:27.980Z,50.875412
2023-03-08T20:40:27.991Z,50.875511
2023-03-08T20:41:27.963Z,50.875443
2023-03-08T20:42:27.990Z,50.875496
2023-03-08T20:43:27.973Z,50.875488
2023-03-08T20:44:27.988Z,50.875584
2023-03-08T20:45:27.959Z,50.875198
2023-03-08T20:46:28.011Z,50.875320
2023-03-08T20:47:27.973Z,50.875320
2023-03-08T20:48:27.941Z,50.875366
2023-03-08T20:49:27.919Z,50.875305
2023-03-08T20:50:27.889Z,50.875427
2023-03-08T20:51:27.884Z,50.875477
2023-03-08T20:52:27.854Z,50.875805
2023-03-08T20:53:27.906Z,50.875687
2023-03-08T20:54:27.882Z,50.875526
2023-03-08T20:55:27.869Z,50.875393
2023-03-08T20:56:27.840Z,50.875450
2023-03-08T20:57:27.836Z,50.875587
2023-03-08T20:58:27.811Z,50.875565
2023-03-08T20:59:27.802Z,50.875629
2023-03-08T21:00:27.805Z,50.875835
2023-03-08T21:01:27.836Z,50.875671
2023-03-08T21:02:27.854Z,50.875420
2023-03-08T21:03:27.715Z,50.875416
2023-03-08T21:04:27.765Z,50.875523
2023-03-08T21:05:27.717Z,50.875988
2023-03-08T21:06:27.731Z,50.875534
2023-03-08T21:07:27.727Z,50.875492
2023-03-08T21:08:27.727Z,50.875435
2023-03-08T21:09:27.727Z,50.875374
2023-03-08T21:10:27.680Z,50.875359
2023-03-08T21:11:27.669Z,50.875328
2023-03-08T21:12:28.632Z,50.875443
2023-03-08T21:13:27.655Z,50.875366
2023-03-08T21:14:27.660Z,50.875336
2023-03-08T21:15:27.683Z,50.875320
2023-03-08T21:16:27.655Z,50.875362
2023-03-08T21:17:27.640Z,50.875435
2023-03-08T21:18:27.629Z,50.875381
2023-03-08T21:19:27.616Z,50.875317
2023-03-08T21:20:27.592Z,50.875320
2023-03-08T21:21:27.659Z,50.875336
2023-03-08T21:22:27.573Z,50.875317
2023-03-08T21:23:27.551Z,50.875336
2023-03-08T21:24:27.558Z,50.875381
2023-03-08T21:25:27.512Z,50.875401
2023-03-08T21:26:27.496Z,50.875378
2023-03-08T21:27:27.491Z,50.875309
2023-03-08T21:28:27.490Z,50.875267
2023-03-08T21:29:27.496Z,50.875313
2023-03-08T21:30:27.432Z,50.875351
2023-03-08T21:31:27.450Z,50.875389
2023-03-08T21:32:28.033Z,50.875374
2023-03-08T21:33:28.395Z,50.875404
2023-03-08T21:34:27.390Z,50.875381
2023-03-08T21:35:27.372Z,50.875347
2023-03-08T21:36:27.393Z,50.875393
2023-03-08T21:37:27.367Z,50.875401
2023-03-08T21:38:27.403Z,50.875324
2023-03-08T21:39:27.354Z,50.875443
2023-03-08T21:40:27.361Z,50.875397
2023-03-08T21:41:27.329Z,50.875359
2023-03-08T21:42:27.311Z,50.875423
2023-03-08T21:43:27.330Z,50.875507
2023-03-08T21:44:27.330Z,50.875412
2023-03-08T21:45:27.287Z,50.875469
2023-03-08T21:46:42.465Z,50.875336
2023-03-08T21:47:35.865Z,50.875351
2023-03-08T21:48:28.302Z,50.875374
2023-03-08T21:49:27.301Z,50.875385
2023-03-08T21:50:27.291Z,50.875446
2023-03-08T21:51:27.415Z,50.875397
2023-03-08T21:52:27.246Z,50.875378
2023-03-08T21:53:27.230Z,50.875362
2023-03-08T21:54:27.228Z,50.875412
2023-03-08T21:55:27.244Z,50.875664
2023-03-08T21:56:27.252Z,50.875443
2023-03-08T21:57:27.212Z,50.875374
2023-03-08T21:58:27.218Z,50.875324
2023-03-08T21:59:27.223Z,50.875317
2023-03-08T22:00:27.212Z,50.875347
2023-03-08T22:01:27.253Z,50.875256
2023-03-08T22:02:27.242Z,50.875385
2023-03-08T22:03:27.143Z,50.875557
2023-03-08T22:04:27.238Z,50.876167
2023-03-08T22:05:27.107Z,50.875473
2023-03-08T22:06:27.117Z,50.875298
2023-03-08T22:07:27.092Z,50.875381
2023-03-08T22:08:27.236Z,50.875378
2023-03-08T22:09:27.097Z,50.875294
2023-03-08T22:10:27.056Z,50.875317
2023-03-08T22:11:27.082Z,50.875141
2023-03-08T22:12:27.025Z,50.875229
2023-03-08T22:13:27.265Z,50.875347
2023-03-08T22:14:27.244Z,50.875355
2023-03-08T22:15:27.101Z,50.875206
2023-03-08T22:16:27.054Z,50.875542
2023-03-08T22:17:26.995Z,50.875416
2023-03-08T22:18:26.992Z,50.875397
2023-03-08T22:19:27.006Z,50.875397
2023-03-08T22:20:26.965Z,50.875446
2023-03-08T22:21:26.969Z,50.875370
2023-03-08T22:22:26.957Z,50.875423
2023-03-08T22:23:26.961Z,50.875446
2023-03-08T22:24:27.052Z,50.875332
2023-03-08T22:25:26.981Z,50.875340
2023-03-08T22:26:27.343Z,50.875523
2023-03-08T22:27:26.902Z,50.875362
2023-03-08T22:28:26.954Z,50.875175
2023-03-08T22:29:26.866Z,50.875011
2023-03-08T22:30:26.896Z,50.875229
2023-03-08T22:31:26.914Z,50.875290
2023-03-08T22:32:26.921Z,50.875286
2023-03-08T22:33:26.853Z,50.875408
2023-03-08T22:34:26.844Z,50.875488
2023-03-08T22:35:26.966Z,50.880188
2023-03-08T22:36:27.815Z,50.884670
2023-03-08T22:37:26.802Z,50.888851
2023-03-08T22:38:26.795Z,50.875381
2023-03-08T22:39:26.769Z,50.875317
2023-03-08T22:40:26.780Z,50.875645
2023-03-08T22:41:26.770Z,50.875473
2023-03-08T22:42:26.763Z,50.875431
2023-03-08T22:43:26.738Z,50.875408
2023-03-08T22:44:26.745Z,50.875309
2023-03-08T22:45:26.703Z,50.875381
2023-03-08T22:46:27.706Z,50.875404
2023-03-08T22:47:26.682Z,50.875397
2023-03-08T22:48:26.679Z,50.875359
2023-03-08T22:49:26.757Z,50.875317
2023-03-08T22:50:26.659Z,50.875450
2023-03-08T22:51:26.655Z,50.875183
2023-03-08T22:52:26.640Z,50.875317
2023-03-08T22:53:26.633Z,50.875324
2023-03-08T22:54:26.631Z,50.875259
2023-03-08T22:55:26.657Z,50.875362
2023-03-08T22:56:26.618Z,50.875385
2023-03-08T22:57:26.574Z,50.875362
2023-03-08T22:58:27.586Z,50.875259
2023-03-08T22:59:26.562Z,50.875340
2023-03-08T23:00:26.617Z,50.875301
2023-03-08T23:01:26.610Z,50.875374
2023-03-08T23:02:26.561Z,50.875504
2023-03-08T23:03:26.606Z,50.875290
2023-03-08T23:04:26.566Z,50.875484
2023-03-08T23:05:26.545Z,50.875751
2023-03-08T23:06:26.491Z,50.875412
2023-03-08T23:07:26.503Z,50.875359
2023-03-08T23:08:26.482Z,50.875401
2023-03-08T23:09:26.474Z,50.875389
2023-03-08T23:10:26.502Z,50.875332
2023-03-08T23:11:26.469Z,50.875275
2023-03-08T23:12:26.432Z,50.875340
2023-03-08T23:13:33.787Z,50.875320
2023-03-08T23:14:28.410Z,50.875355
2023-03-08T23:15:27.440Z,50.875404
2023-03-08T23:16:26.411Z,50.875393
2023-03-08T23:17:26.399Z,50.875282
2023-03-08T23:18:26.376Z,50.875401
2023-03-08T23:19:26.373Z,50.875393
2023-03-08T23:20:26.447Z,50.875374
2023-03-08T23:21:26.345Z,50.875347
2023-03-08T23:22:26.336Z,50.875439
2023-03-08T23:23:26.345Z,50.875427
2023-03-08T23:24:26.335Z,50.875458
2023-03-08T23:25:26.333Z,50.875397
2023-03-08T23:26:26.294Z,50.875389
2023-03-08T23:27:26.299Z,50.875404
2023-03-08T23:28:26.295Z,50.875458
2023-03-08T23:29:26.277Z,50.875381